Time;durP1;ratioP1;P1;durP2;ratioP2;P2;SDS_P1;SDS_P2;PMS_P1;PMS_P2;Temp;Humidity;BMP_temperature;BMP_pressure;BME280_temperature;BME280_humidity;BME280_pressure;Samples;Min_cycle;Max_cycle;Signal;HPM_P1;HPM_P2
2022/05/14 00:23:22;;;;;;;14.17;3.63;;;;;;;;;;4966386;28;20526;-84
2022/05/14 00:26:00;;;;;;;19.10;5.43;;;;;;;;;;4969458;28;20973;-85
2022/05/14 00:28:33;;;;;;;14.77;5.53;;;;;;;;;;4953232;28;20450;-84
2022/05/14 00:31:34;;;;;;;17.10;4.30;;;;;;;;;;4937768;28;20846;-84
2022/05/14 00:34:21;;;;;;;10.30;3.73;;;;;;;;;;4937231;29;20996;-84
2022/05/14 00:37:03;;;;;;;20.03;4.63;;;;;;;;;;4937796;28;20494;-84
2022/05/14 00:40:02;;;;;;;18.73;5.23;;;;;;;;;;4940513;28;20537;-84
2022/05/14 00:56:58;;;;;;;14.67;4.80;;;;;;;;;;4985005;28;20466;-85
2022/05/14 00:59:55;;;;;;;10.83;3.83;;;;;;;;;;4995244;28;20552;-85
2022/05/14 01:03:12;;;;;;;;;;;;;;;;;;;;;
2022/05/14 01:13:50;;;;;;;14.07;4.27;;;;;;;;;;4800111;29;20961;-84
2022/05/14 01:39:00;;;;;;;13.20;4.40;;;;;;;;;;4787121;29;20504;-84
2022/05/14 02:15:02;;;;;;;7.37;3.40;;;;;;;;;;4793399;29;21072;-85
2022/05/14 02:18:27;;;;;;;9.47;3.87;;;;;;;;;;4824574;29;20452;-84
2022/05/14 02:42:30;;;;;;;24.20;4.30;;;;;;;;;;4912097;29;20485;-85
2022/05/14 02:48:45;;;;;;;19.10;4.10;;;;;;;;;;4974747;28;20950;-85
2022/05/14 02:51:33;;;;;;;12.83;4.33;;;;;;;;;;5016555;28;20529;-85
2022/05/14 03:11:40;;;;;;;11.03;4.03;;;;;;;;;;4854449;29;20487;-85
2022/05/14 03:14:45;;;;;;;18.87;4.43;;;;;;;;;;4881846;29;20893;-85
2022/05/14 03:17:27;;;;;;;16.47;3.47;;;;;;;;;;4951480;29;20459;-85
2022/05/14 03:20:40;;;;;;;11.70;3.87;;;;;;;;;;4940305;29;20543;-85
2022/05/14 03:30:57;;;;;;;14.20;3.77;;;;;;;;;;4953382;29;20530;-85
2022/05/14 03:45:06;;;;;;;9.70;3.93;;;;;;;;;;4818282;29;20506;-84
2022/05/14 04:01:55;;;;;;;16.67;3.80;;;;;;;;;;4784117;29;20451;-85
2022/05/14 04:05:28;;;;;;;9.50;3.63;;;;;;;;;;4832715;29;20544;-85
2022/05/14 04:08:39;;;;;;;20.70;4.00;;;;;;;;;;4821624;29;20490;-84
2022/05/14 04:22:01;;;;;;;10.93;4.13;;;;;;;;;;4861984;29;20542;-85
2022/05/14 04:24:38;;;;;;;12.13;4.17;;;;;;;;;;4876480;29;20450;-84
2022/05/14 04:27:32;;;;;;;9.60;3.70;;;;;;;;;;4885518;29;20545;-84
2022/05/14 04:48:56;;;;;;;;;;;;;;;;;;;;;
2022/05/14 05:06:08;;;;;;;9.17;3.80;;;;;;;;;;4921752;29;20479;-85
2022/05/14 05:09:32;;;;;;;;;;;;;;;;;;;;;
2022/05/14 05:16:17;;;;;;;19.10;4.97;;;;;;;;;;4974406;28;20980;-85
2022/05/14 05:19:13;;;;;;;10.80;4.60;;;;;;;;;;4972324;28;20833;-84
2022/05/14 05:22:13;;;;;;;7.67;3.17;;;;;;;;;;4946391;28;20438;-84
2022/05/14 05:25:05;;;;;;;8.13;3.93;;;;;;;;;;4975059;28;20845;-84
2022/05/14 05:27:37;;;;;;;15.87;4.50;;;;;;;;;;4944212;28;20533;-84
2022/05/14 05:30:13;;;;;;;14.13;4.07;;;;;;;;;;4959930;28;20492;-84
2022/05/14 05:32:54;;;;;;;11.00;4.30;;;;;;;;;;4942203;28;20457;-84
2022/05/14 05:36:09;;;;;;;16.93;5.47;;;;;;;;;;4905186;29;20449;-85
2022/05/14 06:58:00;;;;;;;14.33;5.70;;;;;;;;;;5029777;28;20964;-84
2022/05/14 07:36:30;;;;;;;35.20;7.40;;;;;;;;;;4934546;29;20439;-85
2022/05/14 07:39:33;;;;;;;22.47;6.77;;;;;;;;;;4896149;29;20486;-85
2022/05/14 07:52:59;;;;;;;;;;;;;;;;;;;;;
2022/05/14 08:02:31;;;;;;;26.60;6.50;;;;;;;;;;4839430;29;20452;-83
2022/05/14 08:05:24;;;;;;;23.03;6.70;;;;;;;;;;4837913;29;20449;-87
2022/05/14 08:08:09;;;;;;;28.00;6.77;;;;;;;;;;4827600;29;20437;-85
2022/05/14 08:10:36;;;;;;;26.93;6.93;;;;;;;;;;4824320;29;20535;-85
2022/05/14 08:13:04;;;;;;;24.10;7.40;;;;;;;;;;4825428;29;20453;-85
2022/05/14 08:15:32;;;;;;;28.23;7.23;;;;;;;;;;4809601;29;20452;-85
2022/05/14 08:17:59;;;;;;;25.77;6.63;;;;;;;;;;4840271;29;20468;-85
2022/05/14 08:20:28;;;;;;;20.43;7.73;;;;;;;;;;4839705;29;20463;-86
2022/05/14 08:25:42;;;;;;;26.83;6.90;;;;;;;;;;4847885;29;20471;-85
2022/05/14 08:28:09;;;;;;;25.63;7.40;;;;;;;;;;4947472;29;20474;-86
2022/05/14 08:30:37;;;;;;;22.40;6.70;;;;;;;;;;4935276;29;20474;-86
2022/05/14 08:33:07;;;;;;;19.30;5.30;;;;;;;;;;4937184;29;20602;-85
2022/05/14 08:35:34;;;;;;;31.40;7.30;;;;;;;;;;4923632;29;20922;-85
2022/05/14 08:38:02;;;;;;;19.03;6.37;;;;;;;;;;4940813;29;20480;-86
2022/05/14 08:40:30;;;;;;;19.73;6.63;;;;;;;;;;4955860;29;20447;-86
2022/05/14 08:43:01;;;;;;;17.07;5.30;;;;;;;;;;4998011;28;20432;-85
2022/05/14 08:45:29;;;;;;;34.13;7.23;;;;;;;;;;4982764;28;20451;-86
2022/05/14 08:47:57;;;;;;;34.00;6.37;;;;;;;;;;5030962;28;20441;-85
2022/05/14 08:50:27;;;;;;;24.87;6.60;;;;;;;;;;5027773;28;20479;-85
2022/05/14 08:53:00;;;;;;;15.97;6.03;;;;;;;;;;4998939;28;20539;-86
2022/05/14 08:55:30;;;;;;;22.87;6.10;;;;;;;;;;5029593;28;20540;-85
2022/05/14 08:58:02;;;;;;;30.10;6.30;;;;;;;;;;4998927;28;20886;-86
2022/05/14 09:00:30;;;;;;;19.10;5.67;;;;;;;;;;5021504;28;20467;-85
2022/05/14 09:02:57;;;;;;;17.63;6.43;;;;;;;;;;5036070;28;20506;-85
2022/05/14 09:05:30;;;;;;;23.40;6.40;;;;;;;;;;5050760;28;20937;-86
2022/05/14 09:07:57;;;;;;;23.53;7.23;;;;;;;;;;5018258;28;20451;-86
2022/05/14 09:10:25;;;;;;;17.30;6.50;;;;;;;;;;5049110;28;20485;-85
2022/05/14 09:12:53;;;;;;;24.97;7.13;;;;;;;;;;5018870;28;20937;-86
2022/05/14 09:15:21;;;;;;;14.80;6.97;;;;;;;;;;5001226;28;20854;-85
2022/05/14 09:17:49;;;;;;;23.37;7.57;;;;;;;;;;5033967;28;20546;-84
2022/05/14 09:20:25;;;;;;;28.90;7.90;;;;;;;;;;5017126;28;20619;-85
2022/05/14 09:22:53;;;;;;;19.70;6.67;;;;;;;;;;5035595;28;20924;-85
2022/05/14 09:25:24;;;;;;;20.53;6.70;;;;;;;;;;5033509;28;21044;-86
2022/05/14 09:27:54;;;;;;;41.40;8.80;;;;;;;;;;5017702;28;20458;-85
2022/05/14 09:30:27;;;;;;;22.37;6.93;;;;;;;;;;5050779;28;20479;-86
2022/05/14 09:32:54;;;;;;;31.60;8.60;;;;;;;;;;5017600;28;20451;-86
2022/05/14 09:35:23;;;;;;;21.10;8.60;;;;;;;;;;5033680;28;20443;-86
2022/05/14 09:37:51;;;;;;;21.30;8.20;;;;;;;;;;5034523;28;20431;-86
2022/05/14 09:40:23;;;;;;;24.10;8.40;;;;;;;;;;5050189;28;20530;-86
2022/05/14 09:43:07;;;;;;;24.53;9.00;;;;;;;;;;5033445;28;20450;-86
2022/05/14 09:45:37;;;;;;;30.50;8.83;;;;;;;;;;5035129;28;20455;-86
2022/05/14 09:48:08;;;;;;;24.53;7.97;;;;;;;;;;5016252;28;20478;-86
2022/05/14 09:50:36;;;;;;;28.47;7.53;;;;;;;;;;5001448;28;20486;-86
2022/05/14 09:53:03;;;;;;;22.50;8.40;;;;;;;;;;5017258;28;20530;-85
2022/05/14 09:55:51;;;;;;;25.70;8.63;;;;;;;;;;5016555;28;20443;-86
2022/05/14 09:58:37;;;;;;;25.67;9.10;;;;;;;;;;5005239;28;20447;-86
2022/05/14 10:01:10;;;;;;;28.73;9.47;;;;;;;;;;5017521;28;20521;-85
2022/05/14 10:03:50;;;;;;;21.77;9.00;;;;;;;;;;5017235;28;20463;-85
2022/05/14 10:06:18;;;;;;;26.03;8.40;;;;;;;;;;5033151;28;20948;-85
2022/05/14 10:08:52;;;;;;;17.73;8.60;;;;;;;;;;5034671;28;20440;-85
2022/05/14 10:11:28;;;;;;;27.57;8.70;;;;;;;;;;5034460;28;20869;-85
2022/05/14 10:13:56;;;;;;;21.57;9.07;;;;;;;;;;5033337;28;20927;-85
2022/05/14 10:16:42;;;;;;;20.80;8.30;;;;;;;;;;5016551;28;20439;-85
2022/05/14 10:19:09;;;;;;;22.67;7.80;;;;;;;;;;5033962;28;20454;-86
2022/05/14 10:21:55;;;;;;;22.07;9.10;;;;;;;;;;5016367;28;20818;-86
2022/05/14 10:27:18;;;;;;;24.23;8.00;;;;;;;;;;5030933;28;20928;-86
2022/05/14 10:29:57;;;;;;;17.27;6.90;;;;;;;;;;5016884;28;20980;-86
2022/05/14 10:32:26;;;;;;;16.90;6.90;;;;;;;;;;5016496;28;20486;-85
2022/05/14 10:35:09;;;;;;;22.93;7.30;;;;;;;;;;5030780;28;20451;-86
2022/05/14 10:37:50;;;;;;;23.03;7.30;;;;;;;;;;5016528;28;20455;-86
2022/05/14 10:40:24;;;;;;;19.43;6.67;;;;;;;;;;5032678;28;20454;-85
2022/05/14 10:42:57;;;;;;;16.60;6.80;;;;;;;;;;5016162;28;20554;-85
2022/05/14 10:45:33;;;;;;;22.90;7.47;;;;;;;;;;5031026;28;20448;-89
2022/05/14 10:48:03;;;;;;;23.20;7.37;;;;;;;;;;5009889;28;20458;-86
2022/05/14 10:50:31;;;;;;;21.10;8.00;;;;;;;;;;5015905;28;20482;-85
2022/05/14 10:52:58;;;;;;;17.23;7.27;;;;;;;;;;4999917;28;20435;-86
2022/05/14 10:55:28;;;;;;;22.30;8.40;;;;;;;;;;4996363;28;20451;-85
2022/05/14 10:57:58;;;;;;;24.37;8.33;;;;;;;;;;5015618;28;20435;-84
2022/05/14 11:00:29;;;;;;;21.60;7.40;;;;;;;;;;5001307;28;20463;-85
2022/05/14 11:03:02;;;;;;;14.50;7.23;;;;;;;;;;5032641;28;20439;-85
2022/05/14 11:05:34;;;;;;;15.83;7.03;;;;;;;;;;5025491;28;20798;-85
2022/05/14 11:08:09;;;;;;;20.53;7.60;;;;;;;;;;5032711;28;20439;-86
2022/05/14 11:10:39;;;;;;;24.23;8.00;;;;;;;;;;5000526;28;20477;-85
2022/05/14 11:13:10;;;;;;;18.77;6.60;;;;;;;;;;5047793;28;20895;-86
2022/05/14 11:15:39;;;;;;;14.87;7.23;;;;;;;;;;5033016;28;20471;-85
2022/05/14 11:18:11;;;;;;;15.83;7.93;;;;;;;;;;5042070;28;20474;-88
2022/05/14 11:20:38;;;;;;;15.83;7.27;;;;;;;;;;4995034;28;20455;-87
2022/05/14 11:23:12;;;;;;;12.17;6.40;;;;;;;;;;5015295;28;21088;-87
2022/05/14 11:25:39;;;;;;;14.30;6.00;;;;;;;;;;4999509;28;20518;-87
2022/05/14 11:28:08;;;;;;;15.93;5.87;;;;;;;;;;5015002;28;20447;-87
2022/05/14 11:30:38;;;;;;;20.07;5.87;;;;;;;;;;5015465;28;20521;-86
2022/05/14 11:33:18;;;;;;;16.70;6.03;;;;;;;;;;5014665;28;20444;-87
2022/05/14 11:35:46;;;;;;;16.53;4.77;;;;;;;;;;5032664;28;20435;-86
2022/05/14 11:38:15;;;;;;;24.77;7.20;;;;;;;;;;5028686;28;20435;-86
2022/05/14 11:40:42;;;;;;;24.60;6.40;;;;;;;;;;5014857;28;20436;-87
2022/05/14 11:43:10;;;;;;;17.07;4.20;;;;;;;;;;4996562;28;20531;-87
2022/05/14 11:45:39;;;;;;;16.80;5.73;;;;;;;;;;5032478;28;21009;-88
2022/05/14 11:48:11;;;;;;;12.70;4.73;;;;;;;;;;5032387;28;21015;-87
2022/05/14 11:50:39;;;;;;;14.30;4.50;;;;;;;;;;5011080;28;20436;-88
2022/05/14 11:53:28;;;;;;;18.40;4.37;;;;;;;;;;5015402;28;20451;-88
2022/05/14 11:56:33;;;;;;;20.40;5.23;;;;;;;;;;5032148;28;20448;-85
2022/05/14 11:59:09;;;;;;;15.73;4.90;;;;;;;;;;4983479;28;20450;-86
2022/05/14 12:01:38;;;;;;;12.23;4.03;;;;;;;;;;5032754;28;20467;-85
2022/05/14 12:04:14;;;;;;;14.87;4.90;;;;;;;;;;4993426;28;20443;-86
2022/05/14 12:06:45;;;;;;;22.90;5.23;;;;;;;;;;5007099;28;20534;-86
2022/05/14 12:09:18;;;;;;;12.70;4.50;;;;;;;;;;5029243;28;20948;-85
2022/05/14 12:11:58;;;;;;;13.03;4.10;;;;;;;;;;5004102;28;20479;-87
2022/05/14 12:14:29;;;;;;;17.30;5.30;;;;;;;;;;5015209;28;20448;-93
2022/05/14 12:16:57;;;;;;;16.90;4.60;;;;;;;;;;5000352;28;20454;-86
2022/05/14 12:19:35;;;;;;;13.27;4.40;;;;;;;;;;4998212;28;20444;-86
2022/05/14 12:22:03;;;;;;;25.80;4.73;;;;;;;;;;5014979;28;20447;-86
2022/05/14 12:24:32;;;;;;;13.30;4.33;;;;;;;;;;5047324;28;20466;-86
2022/05/14 12:26:59;;;;;;;12.10;3.93;;;;;;;;;;5030636;28;20498;-86
2022/05/14 12:29:30;;;;;;;15.63;4.10;;;;;;;;;;5031090;28;20855;-87
2022/05/14 12:34:54;;;;;;;20.80;4.17;;;;;;;;;;5016646;28;20450;-87
2022/05/14 12:37:48;;;;;;;18.33;4.37;;;;;;;;;;5048270;28;20423;-87
2022/05/14 12:40:23;;;;;;;15.87;4.70;;;;;;;;;;5014159;28;20526;-87
2022/05/14 12:42:52;;;;;;;10.37;4.43;;;;;;;;;;5029947;28;20446;-86
2022/05/14 12:45:20;;;;;;;17.07;4.00;;;;;;;;;;5015007;28;20447;-87
2022/05/14 12:47:47;;;;;;;27.00;4.80;;;;;;;;;;5013492;28;20468;-86
2022/05/14 12:50:21;;;;;;;33.43;4.80;;;;;;;;;;4997975;28;20523;-86
2022/05/14 12:52:56;;;;;;;17.17;3.47;;;;;;;;;;4988300;28;20521;-87
2022/05/14 12:55:24;;;;;;;21.57;4.73;;;;;;;;;;5015167;28;20442;-87
2022/05/14 12:57:52;;;;;;;17.27;4.50;;;;;;;;;;4995647;28;20464;-87
2022/05/14 13:00:20;;;;;;;24.57;5.30;;;;;;;;;;5005288;28;20974;-87
2022/05/14 13:02:50;;;;;;;26.77;4.40;;;;;;;;;;4995006;28;20526;-86
2022/05/14 13:05:24;;;;;;;16.63;4.53;;;;;;;;;;5031102;28;20478;-86
2022/05/14 13:07:53;;;;;;;21.43;4.63;;;;;;;;;;5027064;28;20549;-86
2022/05/14 13:10:21;;;;;;;25.23;4.70;;;;;;;;;;5031699;28;20451;-86
2022/05/14 13:12:59;;;;;;;15.67;4.00;;;;;;;;;;5041822;28;20566;-87
2022/05/14 13:15:30;;;;;;;20.27;3.93;;;;;;;;;;5030746;28;20449;-86
2022/05/14 13:17:57;;;;;;;19.07;4.40;;;;;;;;;;5049018;28;20448;-86
2022/05/14 13:20:32;;;;;;;20.90;3.97;;;;;;;;;;5045487;28;20469;-86
2022/05/14 13:23:25;;;;;;;15.73;4.97;;;;;;;;;;5018338;28;20440;-86
2022/05/14 13:25:57;;;;;;;15.83;3.60;;;;;;;;;;5030748;28;20443;-86
2022/05/14 13:28:25;;;;;;;12.40;3.50;;;;;;;;;;5050858;28;20454;-86
2022/05/14 13:30:53;;;;;;;15.93;4.00;;;;;;;;;;5042096;28;20505;-87
2022/05/14 13:33:38;;;;;;;24.63;5.03;;;;;;;;;;5017587;28;20467;-86
2022/05/14 13:38:55;;;;;;;22.10;4.23;;;;;;;;;;5048318;28;20522;-86
2022/05/14 13:41:30;;;;;;;12.53;3.70;;;;;;;;;;5027585;28;20439;-86
2022/05/14 13:43:59;;;;;;;11.27;3.63;;;;;;;;;;5035355;28;20443;-86
2022/05/14 13:46:39;;;;;;;15.70;3.63;;;;;;;;;;5017523;28;20942;-86
2022/05/14 13:49:06;;;;;;;20.77;4.43;;;;;;;;;;5001016;28;20454;-86
2022/05/14 13:51:33;;;;;;;12.47;3.40;;;;;;;;;;5016928;28;20558;-86
2022/05/14 13:54:05;;;;;;;14.97;4.13;;;;;;;;;;5033900;28;20845;-87
2022/05/14 13:56:34;;;;;;;10.07;2.67;;;;;;;;;;5037112;28;20447;-87
2022/05/14 13:59:23;;;;;;;16.73;4.00;;;;;;;;;;5018590;28;20455;-87
2022/05/14 14:01:54;;;;;;;13.10;3.97;;;;;;;;;;5009739;28;20909;-86
2022/05/14 14:04:27;;;;;;;20.83;3.57;;;;;;;;;;5016258;28;20788;-87
2022/05/14 14:06:59;;;;;;;11.93;3.73;;;;;;;;;;5050054;28;20438;-87
2022/05/14 14:09:26;;;;;;;16.63;3.90;;;;;;;;;;5047539;28;20536;-87
2022/05/14 14:11:54;;;;;;;17.20;4.90;;;;;;;;;;5016480;28;20471;-86
2022/05/14 14:14:21;;;;;;;16.67;5.20;;;;;;;;;;5049520;28;20539;-87
2022/05/14 14:16:50;;;;;;;18.27;4.73;;;;;;;;;;5022096;28;20450;-87
2022/05/14 14:19:19;;;;;;;17.83;4.33;;;;;;;;;;5016590;28;20455;-86
2022/05/14 14:21:46;;;;;;;19.83;5.83;;;;;;;;;;5016740;28;20452;-87
2022/05/14 14:24:15;;;;;;;17.93;4.00;;;;;;;;;;5000323;28;20526;-86
2022/05/14 14:26:49;;;;;;;18.47;4.30;;;;;;;;;;5034707;28;20435;-86
2022/05/14 14:29:17;;;;;;;22.93;4.10;;;;;;;;;;5018108;28;20538;-87
2022/05/14 14:31:45;;;;;;;23.07;4.40;;;;;;;;;;5016388;28;20475;-87
2022/05/14 14:34:12;;;;;;;18.60;5.03;;;;;;;;;;4999870;28;20436;-86
2022/05/14 14:36:39;;;;;;;28.33;5.27;;;;;;;;;;4999932;28;20444;-87
2022/05/14 14:39:07;;;;;;;21.33;4.90;;;;;;;;;;5000219;28;20489;-88
2022/05/14 15:38:38;;;;;;;17.93;5.43;;;;;;;;;;4954655;23;20491;-87
2022/05/14 15:41:07;;;;;;;20.33;4.90;;;;;;;;;;4852804;29;20534;-89
2022/05/14 15:43:34;;;;;;;19.70;5.23;;;;;;;;;;4852249;29;20822;-88
2022/05/14 15:46:03;;;;;;;33.97;5.40;;;;;;;;;;4841729;29;20820;-87
2022/05/14 15:48:40;;;;;;;17.07;4.80;;;;;;;;;;4845144;29;20439;-87
2022/05/14 15:51:13;;;;;;;33.07;5.10;;;;;;;;;;4850857;29;20451;-87
2022/05/14 15:53:43;;;;;;;25.70;5.47;;;;;;;;;;4863248;29;20899;-88
2022/05/14 15:56:12;;;;;;;17.37;4.80;;;;;;;;;;4867167;29;20958;-87
2022/05/14 15:58:39;;;;;;;13.73;4.90;;;;;;;;;;4859578;29;20463;-87
2022/05/14 16:01:08;;;;;;;20.10;4.70;;;;;;;;;;4829629;29;21018;-87
2022/05/14 16:03:35;;;;;;;16.40;4.80;;;;;;;;;;4860168;29;20440;-86
2022/05/14 16:06:03;;;;;;;20.73;5.17;;;;;;;;;;4843636;29;20478;-90
2022/05/14 16:08:32;;;;;;;17.30;5.13;;;;;;;;;;4847624;29;20447;-90
2022/05/14 16:16:31;;;;;;;9.90;3.73;;;;;;;;;;4846551;29;21872;-91
2022/05/14 16:18:59;;;;;;;23.23;5.30;;;;;;;;;;4843974;29;20454;-89
2022/05/14 16:21:26;;;;;;;17.73;4.40;;;;;;;;;;4843900;29;20462;-89
2022/05/14 16:23:56;;;;;;;14.93;5.10;;;;;;;;;;4844121;29;20485;-89
2022/05/14 16:26:37;;;;;;;19.60;5.03;;;;;;;;;;4858364;29;20452;-89
2022/05/14 16:29:06;;;;;;;20.27;4.83;;;;;;;;;;4860168;29;20446;-89
2022/05/14 16:31:34;;;;;;;19.73;4.57;;;;;;;;;;4844145;29;20470;-89
2022/05/14 16:34:02;;;;;;;25.83;5.40;;;;;;;;;;4843892;29;21045;-88
2022/05/14 16:36:30;;;;;;;16.07;4.20;;;;;;;;;;4847442;29;20497;-88
2022/05/14 16:38:59;;;;;;;18.83;4.40;;;;;;;;;;4834709;29;20500;-88
2022/05/14 16:41:29;;;;;;;15.87;3.87;;;;;;;;;;4829594;29;20519;-88
2022/05/14 16:43:59;;;;;;;23.10;4.60;;;;;;;;;;4869571;29;20494;-88
2022/05/14 16:46:28;;;;;;;19.43;5.67;;;;;;;;;;4877401;29;20455;-88
2022/05/14 16:48:57;;;;;;;23.57;5.03;;;;;;;;;;4878038;29;20835;-88
2022/05/14 16:51:24;;;;;;;15.40;4.50;;;;;;;;;;4877878;29;20483;-88
2022/05/14 16:53:58;;;;;;;17.60;4.53;;;;;;;;;;4850941;29;21117;-88
2022/05/14 16:56:35;;;;;;;23.10;5.70;;;;;;;;;;4838827;29;20458;-92
2022/05/14 16:59:04;;;;;;;20.07;4.80;;;;;;;;;;4860365;29;20466;-89
2022/05/14 17:01:32;;;;;;;23.00;4.27;;;;;;;;;;4846450;29;20942;-88
2022/05/14 17:04:01;;;;;;;23.30;5.23;;;;;;;;;;4863085;29;20459;-87
2022/05/14 17:06:34;;;;;;;16.30;4.87;;;;;;;;;;4853846;29;20963;-87
2022/05/14 17:09:01;;;;;;;20.83;4.80;;;;;;;;;;4858985;29;20467;-89
2022/05/14 17:11:40;;;;;;;25.87;5.50;;;;;;;;;;4842948;29;20495;-88
2022/05/14 17:14:10;;;;;;;21.10;4.97;;;;;;;;;;4845654;29;20447;-88
2022/05/14 17:16:38;;;;;;;26.07;5.67;;;;;;;;;;4862079;29;20515;-88
2022/05/14 17:19:06;;;;;;;19.77;7.03;;;;;;;;;;4860969;29;20465;-88
2022/05/14 17:21:33;;;;;;;12.10;4.67;;;;;;;;;;4862453;29;20451;-87
2022/05/14 17:24:02;;;;;;;28.37;5.27;;;;;;;;;;4844404;29;20460;-90
2022/05/14 17:26:31;;;;;;;18.17;4.90;;;;;;;;;;4859306;29;20436;-89
2022/05/14 17:29:02;;;;;;;23.30;4.33;;;;;;;;;;4859774;29;20863;-88
2022/05/14 17:31:31;;;;;;;20.23;5.37;;;;;;;;;;4846621;29;20452;-88
2022/05/14 17:34:00;;;;;;;18.60;5.23;;;;;;;;;;4859512;29;20484;-88
2022/05/14 17:36:30;;;;;;;17.40;4.70;;;;;;;;;;4835681;29;20447;-88
2022/05/14 17:41:51;;;;;;;21.27;5.50;;;;;;;;;;4849435;29;20440;-87
2022/05/14 17:44:19;;;;;;;24.07;5.17;;;;;;;;;;4846752;29;20451;-88
2022/05/14 17:46:48;;;;;;;25.10;5.70;;;;;;;;;;4845890;29;20938;-86
2022/05/14 17:49:15;;;;;;;27.80;5.03;;;;;;;;;;4861934;29;20515;-88
2022/05/14 17:51:42;;;;;;;29.80;6.97;;;;;;;;;;4842316;29;20459;-88
2022/05/14 17:54:12;;;;;;;12.07;4.60;;;;;;;;;;4827741;29;20487;-87
2022/05/14 17:56:43;;;;;;;19.87;5.70;;;;;;;;;;4845450;29;20458;-91
2022/05/14 17:59:11;;;;;;;20.33;6.13;;;;;;;;;;4854928;29;20485;-90
2022/05/14 18:01:41;;;;;;;28.90;6.00;;;;;;;;;;4842226;29;20443;-90
2022/05/14 18:04:08;;;;;;;12.83;5.20;;;;;;;;;;4845709;29;20451;-91
2022/05/14 18:06:38;;;;;;;20.10;5.67;;;;;;;;;;4831625;29;20798;-90
2022/05/14 18:09:05;;;;;;;20.53;5.70;;;;;;;;;;4861976;29;20464;-90
2022/05/14 18:11:41;;;;;;;22.87;5.67;;;;;;;;;;4835676;29;20460;-90
2022/05/14 18:14:16;;;;;;;32.73;6.20;;;;;;;;;;4850487;29;20989;-90
2022/05/14 18:16:45;;;;;;;27.00;6.03;;;;;;;;;;4842542;29;20454;-90
2022/05/14 18:19:14;;;;;;;22.03;6.20;;;;;;;;;;4846592;29;20888;-90
2022/05/14 18:22:01;;;;;;;25.13;5.30;;;;;;;;;;4847039;29;20539;-90
2022/05/14 18:24:29;;;;;;;23.50;5.87;;;;;;;;;;4859169;29;20508;-91
2022/05/14 18:27:01;;;;;;;16.00;5.90;;;;;;;;;;4846653;29;20451;-91
2022/05/14 18:29:30;;;;;;;18.43;5.43;;;;;;;;;;4849727;29;20962;-90
2022/05/14 18:31:58;;;;;;;24.10;5.60;;;;;;;;;;4846186;29;20469;-90
2022/05/14 18:34:26;;;;;;;22.03;6.60;;;;;;;;;;4831135;29;20563;-91
2022/05/14 18:36:55;;;;;;;22.40;5.90;;;;;;;;;;4831679;29;21084;-90
2022/05/14 18:39:25;;;;;;;16.23;5.37;;;;;;;;;;4834150;29;20546;-91
2022/05/14 18:41:52;;;;;;;19.63;5.83;;;;;;;;;;4814041;29;21004;-90
2022/05/14 18:44:21;;;;;;;18.73;4.93;;;;;;;;;;4828840;29;20460;-90
2022/05/14 18:46:48;;;;;;;22.33;5.93;;;;;;;;;;4829954;29;20504;-91
2022/05/14 18:49:19;;;;;;;19.03;7.03;;;;;;;;;;4816492;29;20871;-90
2022/05/14 18:51:48;;;;;;;23.43;6.80;;;;;;;;;;4852680;29;20572;-90
2022/05/14 18:54:17;;;;;;;26.47;6.43;;;;;;;;;;4836474;29;20868;-90
2022/05/14 18:56:46;;;;;;;17.20;5.67;;;;;;;;;;4830084;29;20444;-91
2022/05/14 18:59:14;;;;;;;16.10;6.53;;;;;;;;;;4826310;29;20479;-91
2022/05/14 19:01:41;;;;;;;19.83;5.60;;;;;;;;;;4831972;29;20456;-91
2022/05/14 19:07:24;;;;;;;24.07;6.73;;;;;;;;;;4855820;29;20508;-91
2022/05/14 19:09:53;;;;;;;27.33;6.80;;;;;;;;;;4834034;29;20512;-91
2022/05/14 19:12:27;;;;;;;24.50;7.10;;;;;;;;;;4831902;29;20440;-90
2022/05/14 19:15:01;;;;;;;23.60;7.30;;;;;;;;;;4854170;29;20939;-91
2022/05/14 19:17:30;;;;;;;23.73;7.27;;;;;;;;;;4827558;29;20492;-90
2022/05/14 19:19:59;;;;;;;16.17;6.63;;;;;;;;;;4839890;29;20444;-92
2022/05/14 19:22:27;;;;;;;16.00;5.83;;;;;;;;;;4827575;29;20456;-91
2022/05/14 19:24:55;;;;;;;27.53;8.70;;;;;;;;;;4827977;29;20523;-91
2022/05/14 19:27:23;;;;;;;25.83;7.73;;;;;;;;;;4812262;29;20452;-89
2022/05/14 19:29:51;;;;;;;24.50;6.40;;;;;;;;;;4811722;29;20445;-89
2022/05/14 19:35:43;;;;;;;26.87;7.70;;;;;;;;;;4844688;29;20980;-93
2022/05/14 19:38:34;;;;;;;24.63;6.50;;;;;;;;;;4828194;29;20480;-92
2022/05/14 19:41:11;;;;;;;20.87;5.60;;;;;;;;;;4842953;29;20507;-92
2022/05/14 19:47:08;;;;;;;18.20;7.27;;;;;;;;;;4829673;29;20439;-95
2022/05/14 20:00:03;;;;;;;24.23;6.10;;;;;;;;;;5505336;24;20561;-94
2022/05/14 20:02:47;;;;;;;;;;;;;;;;;;;;;
2022/05/14 20:25:47;;;;;;;19.33;6.27;;;;;;;;;;4844561;29;20523;-96
2022/05/14 20:39:07;;;;;;;18.07;5.50;;;;;;;;;;4847509;29;20430;-95
2022/05/14 20:45:16;;;;;;;24.90;6.47;;;;;;;;;;4776861;29;21020;-94
2022/05/14 20:51:20;;;;;;;23.50;6.20;;;;;;;;;;4823669;29;20521;-94
2022/05/14 21:14:58;;;;;;;29.07;6.77;;;;;;;;;;4846664;29;20411;-94
2022/05/14 21:17:46;;;;;;;17.33;6.40;;;;;;;;;;4780945;29;20459;-94
2022/05/14 21:24:07;;;;;;;20.20;6.90;;;;;;;;;;4844607;29;20468;-95
2022/05/14 21:30:06;;;;;;;26.83;7.37;;;;;;;;;;4879393;29;20905;-93
2022/05/14 21:43:15;;;;;;;22.53;7.83;;;;;;;;;;4866688;29;20416;-93
2022/05/14 21:46:09;;;;;;;22.07;7.03;;;;;;;;;;4839262;29;20454;-93
2022/05/14 21:48:40;;;;;;;27.03;7.80;;;;;;;;;;4853936;29;20525;-94
2022/05/14 21:54:34;;;;;;;26.30;8.80;;;;;;;;;;4874191;29;20534;-93
2022/05/14 22:18:53;;;;;;;20.60;5.80;;;;;;;;;;4847084;29;20403;-94
2022/05/14 22:31:48;;;;;;;32.07;6.70;;;;;;;;;;4790311;30;20438;-94
2022/05/14 23:27:15;;;;;;;17.27;5.20;;;;;;;;;;4793833;29;20451;-95
2022/05/14 23:37:17;;;;;;;15.73;5.50;;;;;;;;;;4760925;30;20441;-96
2022/05/14 23:43:15;;;;;;;30.03;5.20;;;;;;;;;;4741348;30;20463;-94
2022/05/14 23:52:39;;;;;;;27.70;5.60;;;;;;;;;;4765791;29;20441;-96
2022/05/14 23:55:14;;;;;;;18.43;4.27;;;;;;;;;;4781625;30;20532;-96
